createdAt,value
2017-05-27T00:00:04.716Z,93.48
2017-05-27T00:00:16.604Z,93.48
2017-05-27T00:00:29.475Z,93.48
2017-05-27T00:00:42.422Z,93.1
2017-05-27T00:00:55.321Z,92.91
2017-05-27T00:01:08.869Z,93.1
2017-05-27T00:01:21.251Z,93.19
2017-05-27T00:01:33.653Z,93.1
2017-05-27T00:01:47.105Z,92.91
2017-05-27T00:02:00.577Z,92.91
2017-05-27T00:02:13.439Z,93
2017-05-27T00:02:25.894Z,92.71
2017-05-27T00:02:39.307Z,93
2017-05-27T00:02:52.882Z,93
2017-05-27T00:03:06.090Z,92.91
2017-05-27T00:03:18.965Z,92.61
2017-05-27T00:03:31.942Z,92.71
2017-05-27T00:03:45.528Z,92.71
2017-05-27T00:03:58.450Z,92.61
2017-05-27T00:04:10.816Z,92.71
2017-05-27T00:04:23.158Z,92.91
2017-05-27T00:04:36.045Z,92.91
2017-05-27T00:04:49.011Z,92.61
2017-05-27T00:05:02.462Z,92.91
2017-05-27T00:05:15.876Z,93.1
2017-05-27T00:05:29.331Z,93.19
2017-05-27T00:05:42.666Z,93.19
2017-05-27T00:05:56.014Z,93.1
2017-05-27T00:06:08.403Z,93
2017-05-27T00:06:21.306Z,92.91
2017-05-27T00:06:34.261Z,92.91
2017-05-27T00:06:47.677Z,92.61
2017-05-27T00:07:00.538Z,92.71
2017-05-27T00:07:12.364Z,92.91
2017-05-27T00:07:25.387Z,92.61
2017-05-27T00:07:38.841Z,92.91
2017-05-27T00:07:52.222Z,92.71
2017-05-27T00:08:05.075Z,92.23
2017-05-27T00:08:18.219Z,92.33
2017-05-27T00:08:30.637Z,92.43
2017-05-27T00:08:44.076Z,92.52
2017-05-27T00:08:57.432Z,92.43
2017-05-27T00:09:10.308Z,92.43
2017-05-27T00:09:23.787Z,92.33
2017-05-27T00:09:36.730Z,92.52
2017-05-27T00:09:50.197Z,92.33
2017-05-27T00:10:03.193Z,92.52
2017-05-27T00:10:16.846Z,92.33
2017-05-27T00:10:29.708Z,92.33
2017-05-27T00:10:42.699Z,92.23
2017-05-27T00:10:56.153Z,92.43
2017-05-27T00:11:08.060Z,92.23
2017-05-27T00:11:21.042Z,92.33
2017-05-27T00:11:33.840Z,92.33
2017-05-27T00:11:47.239Z,92.33
2017-05-27T00:12:00.660Z,92.23
2017-05-27T00:12:13.550Z,92.33
2017-05-27T00:12:26.880Z,92.52
2017-05-27T00:12:40.277Z,92.52
2017-05-27T00:12:53.720Z,92.52
2017-05-27T00:13:06.140Z,92.43
2017-05-27T00:13:19.593Z,92.33
2017-05-27T00:13:32.516Z,92.52
2017-05-27T00:13:45.412Z,92.43
2017-05-27T00:13:58.854Z,92.43
2017-05-27T00:14:11.801Z,92.33
2017-05-27T00:14:25.262Z,92.43
2017-05-27T00:14:38.622Z,92.43
2017-05-27T00:14:52.060Z,92.43
2017-05-27T00:15:05.532Z,92.43
2017-05-27T00:15:19.194Z,92.43
2017-05-27T00:15:32.683Z,92.43
2017-05-27T00:15:46.025Z,92.33
2017-05-27T00:15:59.414Z,92.43
2017-05-27T00:16:11.829Z,92.43
2017-05-27T00:16:24.808Z,92.43
2017-05-27T00:16:37.707Z,92.33
2017-05-27T00:16:51.126Z,92.61
2017-05-27T00:17:04.519Z,92.52
2017-05-27T00:17:16.916Z,92.52
2017-05-27T00:17:29.508Z,92.43
2017-05-27T00:17:42.467Z,92.52
2017-05-27T00:17:55.938Z,92.52
2017-05-27T00:18:08.330Z,92.52
2017-05-27T00:18:21.997Z,92.52
2017-05-27T00:18:34.352Z,92.61
2017-05-27T00:18:47.803Z,92.61
2017-05-27T00:19:01.240Z,92.71
2017-05-27T00:19:14.092Z,92.33
2017-05-27T00:19:26.997Z,92.33
2017-05-27T00:19:40.432Z,92.13
2017-05-27T00:19:53.870Z,92.43
2017-05-27T00:20:06.797Z,92.33
2017-05-27T00:20:20.442Z,92.33
2017-05-27T00:20:32.875Z,92.61
2017-05-27T00:20:46.439Z,92.43
2017-05-27T00:20:59.840Z,92.33
2017-05-27T00:21:13.245Z,92.43
2017-05-27T00:21:26.247Z,92.33
2017-05-27T00:21:38.632Z,92.23
2017-05-27T00:21:52.139Z,92.04
2017-05-27T00:22:05.571Z,92.52
2017-05-27T00:22:18.991Z,92.04
2017-05-27T00:22:32.478Z,91.94
2017-05-27T00:22:45.862Z,92.04
2017-05-27T00:22:59.277Z,91.94
2017-05-27T00:23:11.683Z,92.13
2017-05-27T00:23:25.140Z,92.33
2017-05-27T00:23:38.051Z,92.33
2017-05-27T00:23:51.500Z,91.75
2017-05-27T00:24:04.946Z,91.75
2017-05-27T00:24:17.898Z,91.85
2017-05-27T00:24:31.293Z,91.75
2017-05-27T00:24:44.738Z,91.85
2017-05-27T00:24:57.599Z,92.13
2017-05-27T00:25:10.475Z,91.46
2017-05-27T00:25:23.433Z,91.66
2017-05-27T00:25:37.155Z,91.75
2017-05-27T00:25:50.516Z,91.66
2017-05-27T00:26:03.350Z,91.75
2017-05-27T00:26:16.711Z,91.46
2017-05-27T00:26:29.086Z,91.46
2017-05-27T00:26:41.514Z,91.46
2017-05-27T00:26:54.939Z,91.66
2017-05-27T00:27:08.314Z,91.36
2017-05-27T00:27:20.714Z,91.56
2017-05-27T00:27:33.647Z,91.56
2017-05-27T00:27:47.323Z,91.32
2017-05-27T00:28:00.757Z,90.84
2017-05-27T00:28:14.277Z,91.13
2017-05-27T00:28:27.777Z,91.32
2017-05-27T00:28:40.879Z,91.22
2017-05-27T00:28:55.796Z,91.32
2017-05-27T00:29:08.999Z,90.84
2017-05-27T00:29:22.517Z,90.75
2017-05-27T00:29:36.021Z,90.65
2017-05-27T00:29:49.407Z,91.13
2017-05-27T00:30:02.932Z,90.75
2017-05-27T00:30:15.320Z,91.03
2017-05-27T00:30:28.258Z,90.75
2017-05-27T00:30:41.393Z,90.55
2017-05-27T00:30:54.336Z,90.75
2017-05-27T00:31:07.811Z,90.84
2017-05-27T00:31:20.375Z,90.94
2017-05-27T00:31:33.334Z,90.36
2017-05-27T00:31:46.833Z,90.17
2017-05-27T00:31:59.822Z,90.17
2017-05-27T00:32:13.271Z,90.26
2017-05-27T00:32:25.705Z,90.36
2017-05-27T00:32:38.718Z,90.55
2017-05-27T00:32:53.422Z,90.45
2017-05-27T00:33:06.862Z,90.26
2017-05-27T00:33:20.041Z,90.36
2017-05-27T00:33:32.412Z,90.36
2017-05-27T00:33:45.882Z,90.07
2017-05-27T00:33:59.306Z,90.36
2017-05-27T00:34:12.248Z,90.45
2017-05-27T00:34:26.599Z,89.88
2017-05-27T00:34:40.087Z,90.17
2017-05-27T00:34:53.776Z,89.98
2017-05-27T00:35:06.706Z,90.07
2017-05-27T00:35:19.690Z,90.07
2017-05-27T00:35:32.132Z,90.07
2017-05-27T00:35:45.570Z,89.98
2017-05-27T00:35:58.548Z,89.98
2017-05-27T00:36:10.926Z,90.07
2017-05-27T00:36:23.262Z,89.98
2017-05-27T00:36:36.224Z,90.07
2017-05-27T00:36:49.605Z,89.98
2017-05-27T00:37:02.043Z,90.07
2017-05-27T00:37:15.072Z,89.98
2017-05-27T00:37:27.471Z,89.88
2017-05-27T00:37:40.379Z,90.07
2017-05-27T00:37:53.296Z,89.88
2017-05-27T00:38:06.125Z,89.69
2017-05-27T00:38:18.051Z,89.78
2017-05-27T00:38:30.983Z,89.88
2017-05-27T00:38:44.423Z,89.78
2017-05-27T00:38:57.325Z,89.78
2017-05-27T00:39:10.210Z,89.78
2017-05-27T00:39:23.665Z,89.98
2017-05-27T00:39:37.061Z,89.78
2017-05-27T00:39:50.486Z,89.78
2017-05-27T00:40:03.766Z,89.88
2017-05-27T00:40:16.257Z,89.78
2017-05-27T00:40:29.887Z,89.78
2017-05-27T00:40:43.381Z,89.88
2017-05-27T00:40:56.771Z,89.78
2017-05-27T00:41:10.307Z,90.07
2017-05-27T00:41:23.198Z,89.59
2017-05-27T00:41:35.143Z,89.69
2017-05-27T00:41:51.156Z,89.59
2017-05-27T00:42:06.179Z,89.59
2017-05-27T00:42:19.062Z,89.59
2017-05-27T00:42:31.950Z,89.69
2017-05-27T00:42:46.135Z,89.59
2017-05-27T00:42:59.596Z,89.69
2017-05-27T00:43:12.015Z,89.98
2017-05-27T00:43:24.878Z,89.88
2017-05-27T00:43:37.746Z,89.88
2017-05-27T00:43:51.221Z,89.88
2017-05-27T00:44:04.106Z,89.78
2017-05-27T00:44:16.546Z,89.78
2017-05-27T00:44:30.068Z,90.07
2017-05-27T00:44:43.543Z,90.07
2017-05-27T00:44:57.000Z,89.4
2017-05-27T00:45:38.339Z,89.21
2017-05-27T00:45:58.288Z,89.21
2017-05-27T00:46:10.775Z,89.4
2017-05-27T00:46:22.657Z,89.3
2017-05-27T00:46:36.100Z,89.59
2017-05-27T00:46:49.488Z,89.3
2017-05-27T00:47:02.375Z,89.21
2017-05-27T00:47:15.856Z,89.4
2017-05-27T00:47:29.274Z,89.4
2017-05-27T00:47:42.671Z,89.4
2017-05-27T00:47:56.143Z,89.4
2017-05-27T00:48:09.508Z,89.21
2017-05-27T00:48:22.401Z,89.4
2017-05-27T00:48:36.146Z,89.3
2017-05-27T00:48:49.081Z,89.21
2017-05-27T00:49:02.022Z,88.92
2017-05-27T00:49:14.933Z,89.01
2017-05-27T00:49:28.075Z,89.01
2017-05-27T00:49:41.010Z,88.92
2017-05-27T00:49:53.963Z,89.11
2017-05-27T00:50:06.832Z,88.92
2017-05-27T00:50:19.144Z,89.01
2017-05-27T00:50:34.940Z,89.01
2017-05-27T00:50:49.894Z,88.73
2017-05-27T00:51:02.927Z,89.01
2017-05-27T00:51:16.355Z,88.92
2017-05-27T00:51:29.375Z,88.92
2017-05-27T00:51:41.761Z,88.82
2017-05-27T00:51:55.602Z,88.73
2017-05-27T00:52:12.097Z,88.73
2017-05-27T00:52:27.509Z,89.01
2017-05-27T00:52:41.447Z,88.73
2017-05-27T00:52:55.115Z,88.92
2017-05-27T00:53:07.976Z,89.01
2017-05-27T00:53:20.344Z,88.73
2017-05-27T00:53:33.766Z,88.53
2017-05-27T00:53:46.678Z,88.53
2017-05-27T00:54:00.377Z,88.73
2017-05-27T00:54:12.729Z,88.53
2017-05-27T00:54:25.188Z,88.53
2017-05-27T00:54:37.545Z,88.44
2017-05-27T00:54:51.018Z,88.34
2017-05-27T00:55:05.448Z,88.24
2017-05-27T00:55:24.955Z,88.53
2017-05-27T00:55:38.613Z,88.34
2017-05-27T00:55:51.957Z,88.44
2017-05-27T00:56:05.694Z,88.73
2017-05-27T00:56:21.905Z,88.73
2017-05-27T00:56:49.429Z,88.73
2017-05-27T00:57:06.738Z,88.73
2017-05-27T00:57:19.578Z,88.73
2017-05-27T00:57:34.946Z,88.73
2017-05-27T00:57:55.203Z,88.53
2017-05-27T00:58:08.678Z,88.53
2017-05-27T00:58:22.182Z,88.53
2017-05-27T00:58:35.170Z,88.06
2017-05-27T00:58:49.105Z,88.24
2017-05-27T00:59:02.013Z,88.24
2017-05-27T00:59:14.971Z,88.24
2017-05-27T00:59:27.442Z,88.06
2017-05-27T00:59:40.870Z,88.06
2017-05-27T00:59:53.868Z,87.86
2017-05-27T01:00:07.533Z,88.06
2017-05-27T01:00:20.680Z,87.96
2017-05-27T01:00:36.249Z,88.06
2017-05-27T01:00:52.050Z,88.15
2017-05-27T01:01:05.524Z,88.15
2017-05-27T01:01:19.014Z,88.15
2017-05-27T01:01:31.977Z,88.15
2017-05-27T01:01:44.947Z,88.24
2017-05-27T01:01:58.404Z,88.15
2017-05-27T01:02:11.365Z,87.86
2017-05-27T01:02:28.321Z,87.96
2017-05-27T01:02:44.796Z,87.76
2017-05-27T01:02:57.819Z,88.15
2017-05-27T01:03:10.894Z,88.06
2017-05-27T01:03:23.839Z,87.67
2017-05-27T01:03:37.549Z,87.57
2017-05-27T01:03:50.988Z,87.57
2017-05-27T01:04:04.494Z,87.86
2017-05-27T01:04:16.887Z,87.67
2017-05-27T01:04:29.789Z,87.19
2017-05-27T01:04:43.277Z,86.99
2017-05-27T01:04:56.690Z,87.38
2017-05-27T01:05:09.587Z,87.38
2017-05-27T01:05:23.065Z,87.29
2017-05-27T01:05:36.033Z,87.38
2017-05-27T01:05:49.446Z,87.19
2017-05-27T01:06:02.840Z,87.19
2017-05-27T01:06:16.211Z,87.29
2017-05-27T01:06:29.077Z,86.95
2017-05-27T01:06:41.378Z,86.95
2017-05-27T01:06:55.015Z,86.95
2017-05-27T01:07:08.000Z,86.66
2017-05-27T01:07:20.491Z,87.05
2017-05-27T01:07:34.652Z,86.9
2017-05-27T01:07:49.522Z,86.99
2017-05-27T01:08:02.969Z,86.85
2017-05-27T01:08:15.350Z,87.05
2017-05-27T01:08:27.794Z,86.66
2017-05-27T01:08:40.758Z,86.85
2017-05-27T01:08:58.782Z,86.85
2017-05-27T01:09:14.660Z,86.76
2017-05-27T01:09:28.180Z,86.76
2017-05-27T01:09:42.381Z,86.28
2017-05-27T01:09:55.789Z,86.47
2017-05-27T01:10:12.322Z,86.95
2017-05-27T01:10:27.879Z,87.05
2017-05-27T01:10:41.562Z,86.85
2017-05-27T01:10:53.976Z,86.38
2017-05-27T01:11:06.888Z,86.76
2017-05-27T01:11:19.757Z,86.18
2017-05-27T01:11:32.156Z,86.66
2017-05-27T01:11:45.633Z,86.57
2017-05-27T01:11:59.546Z,86.57
2017-05-27T01:12:18.129Z,86.61
2017-05-27T01:12:32.162Z,86.66
2017-05-27T01:12:45.600Z,86.66
2017-05-27T01:12:58.481Z,86.61
2017-05-27T01:13:11.508Z,86.42
2017-05-27T01:13:25.607Z,86.8
2017-05-27T01:13:38.749Z,86.71
2017-05-27T01:13:52.799Z,86.42
2017-05-27T01:14:05.801Z,86.38
2017-05-27T01:14:18.636Z,86.66
2017-05-27T01:14:31.055Z,86.42
2017-05-27T01:14:45.266Z,86.47
2017-05-27T01:15:00.422Z,86.38
2017-05-27T01:15:13.282Z,86.47
2017-05-27T01:15:26.048Z,86.47
2017-05-27T01:15:39.306Z,86.38
2017-05-27T01:15:58.167Z,86.52
2017-05-27T01:16:11.191Z,86.38
2017-05-27T01:16:24.615Z,86.38
2017-05-27T01:16:37.535Z,86.57
2017-05-27T01:16:50.993Z,86.38
2017-05-27T01:17:04.485Z,86.47
2017-05-27T01:17:20.220Z,86.52
2017-05-27T01:17:33.828Z,86.47
2017-05-27T01:17:48.340Z,86.32
2017-05-27T01:18:01.351Z,86.38
2017-05-27T01:18:14.282Z,86.52
2017-05-27T01:18:30.281Z,86.42
2017-05-27T01:18:44.247Z,86.38
2017-05-27T01:18:57.962Z,86.38
2017-05-27T01:19:11.400Z,86.47
2017-05-27T01:19:24.564Z,86.38
2017-05-27T01:19:39.438Z,86.52
2017-05-27T01:19:54.556Z,86.38
2017-05-27T01:20:07.512Z,86.28
2017-05-27T01:20:21.603Z,86.47
2017-05-27T01:20:38.898Z,86.47
2017-05-27T01:20:52.322Z,86.28
2017-05-27T01:21:05.723Z,86.47
2017-05-27T01:21:35.263Z,86.57
2017-05-27T01:21:48.759Z,86.66
2017-05-27T01:22:01.624Z,86.57
2017-05-27T01:22:25.414Z,86.32
2017-05-27T01:22:38.372Z,86.47
2017-05-27T01:23:53.438Z,86.66
2017-05-27T01:24:12.918Z,86.28
2017-05-27T01:24:38.821Z,86.57
2017-05-27T01:24:53.179Z,86.09
2017-05-27T01:25:42.979Z,86.28
2017-05-27T01:26:02.957Z,86.18
2017-05-27T01:26:15.933Z,86.18
2017-05-27T01:26:30.788Z,86.32
2017-05-27T01:26:49.130Z,86.18
2017-05-27T01:27:08.213Z,86.18
2017-05-27T01:27:30.617Z,86.22
2017-05-27T01:28:41.122Z,86.04
2017-05-27T01:30:21.180Z,85.99
2017-05-27T01:31:07.822Z,85.99
2017-05-27T01:31:20.765Z,86.32
2017-05-27T01:31:55.365Z,86.09
2017-05-27T01:32:24.978Z,85.99
2017-05-27T01:32:50.231Z,86.04
2017-05-27T01:33:26.699Z,86.32
2017-05-27T01:33:47.194Z,86.42
2017-05-27T01:34:03.746Z,85.99
2017-05-27T01:34:53.907Z,86.32
2017-05-27T01:35:38.629Z,85.99
2017-05-27T01:36:28.992Z,86.18
2017-05-27T01:36:48.793Z,86.47
2017-05-27T01:37:02.301Z,86.32
2017-05-27T01:38:33.431Z,86.09
2017-05-27T01:38:46.789Z,86.04
2017-05-27T01:39:00.954Z,86.38
2017-05-27T01:39:15.999Z,86.18
2017-05-27T01:39:34.667Z,86.18
2017-05-27T01:39:48.095Z,86.38
2017-05-27T01:40:01.085Z,86.28
2017-05-27T01:40:14.462Z,86.18
2017-05-27T01:40:27.852Z,86.66
2017-05-27T01:40:41.353Z,86.47
2017-05-27T01:41:00.850Z,86.09
2017-05-27T01:41:18.638Z,86.38
2017-05-27T01:41:33.823Z,86.47
2017-05-27T01:41:52.529Z,86.28
2017-05-27T01:42:06.592Z,86.18
2017-05-27T01:42:21.404Z,85.99
2017-05-27T01:42:34.811Z,85.99
2017-05-27T01:42:53.318Z,86.18
2017-05-27T01:43:09.192Z,86.09
2017-05-27T01:43:22.403Z,86.09
2017-05-27T01:43:35.320Z,86.09
2017-05-27T01:43:49.029Z,86.09
2017-05-27T01:44:02.745Z,86.18
2017-05-27T01:44:19.321Z,86.09
2017-05-27T01:44:32.361Z,86.28
2017-05-27T01:44:45.737Z,86.28
2017-05-27T01:44:59.157Z,86.09
2017-05-27T01:45:12.506Z,86.28
2017-05-27T01:45:25.177Z,86.09
2017-05-27T01:45:38.135Z,86.09
2017-05-27T01:45:52.836Z,85.8
2017-05-27T01:46:05.265Z,86.09
2017-05-27T01:46:40.402Z,85.8
2017-05-27T01:46:53.916Z,85.99
2017-05-27T01:47:06.352Z,86.09
2017-05-27T01:47:19.233Z,85.99
2017-05-27T01:47:34.221Z,86.09
2017-05-27T01:47:54.640Z,86.28
2017-05-27T01:48:07.625Z,86.09
2017-05-27T01:48:20.560Z,85.99
2017-05-27T01:48:34.032Z,85.89
2017-05-27T01:48:47.477Z,86.18
2017-05-27T01:49:02.369Z,86.09
2017-05-27T01:49:15.516Z,86.09
2017-05-27T01:49:27.890Z,86.09
2017-05-27T01:49:43.856Z,85.99
2017-05-27T01:49:57.543Z,86.09
2017-05-27T01:50:38.782Z,85.8
2017-05-27T01:51:24.787Z,86.28
2017-05-27T01:51:37.708Z,85.89
2017-05-27T01:51:51.259Z,85.89
2017-05-27T01:52:09.921Z,86.18
2017-05-27T01:52:22.844Z,85.89
2017-05-27T01:52:36.966Z,86.28
2017-05-27T01:52:57.650Z,85.89
2017-05-27T01:53:10.498Z,86.18
2017-05-27T01:53:58.057Z,85.71
2017-05-27T01:54:10.491Z,85.71
2017-05-27T01:54:22.793Z,85.61
2017-05-27T01:54:35.803Z,85.51
2017-05-27T01:54:49.427Z,85.71
2017-05-27T01:55:02.891Z,85.71
2017-05-27T01:55:44.160Z,85.61
2017-05-27T01:55:58.301Z,85.99
2017-05-27T01:56:10.721Z,86.09
2017-05-27T01:56:42.876Z,85.89
2017-05-27T01:57:16.793Z,85.22
2017-05-27T01:57:31.025Z,85.99
2017-05-27T01:57:44.221Z,85.32
2017-05-27T01:57:57.707Z,85.99
2017-05-27T01:58:11.295Z,85.8
2017-05-27T01:58:25.453Z,85.8
2017-05-27T01:58:40.122Z,85.61
2017-05-27T01:58:54.142Z,85.99
2017-05-27T01:59:06.823Z,86.09
2017-05-27T01:59:24.112Z,85.8
2017-05-27T01:59:39.512Z,85.61
2017-05-27T02:00:03.734Z,85.61
2017-05-27T02:00:48.198Z,85.32
2017-05-27T02:01:28.332Z,85.41
2017-05-27T02:02:11.974Z,85.89
2017-05-27T02:02:25.428Z,85.41
2017-05-27T02:02:37.787Z,85.51
2017-05-27T02:03:07.582Z,85.51
2017-05-27T02:04:37.237Z,85.8
2017-05-27T02:04:50.732Z,85.32
2017-05-27T02:05:54.553Z,85.03
2017-05-27T02:06:44.909Z,85.13
2017-05-27T02:07:09.424Z,85.13
2017-05-27T02:07:46.098Z,85.22
2017-05-27T02:08:05.783Z,85.03
2017-05-27T02:08:27.756Z,84.74
2017-05-27T02:08:56.920Z,84.94
2017-05-27T02:09:43.134Z,84.94
2017-05-27T02:10:03.083Z,85.03
2017-05-27T02:10:26.809Z,84.84
2017-05-27T02:10:49.667Z,84.74
2017-05-27T02:11:03.079Z,84.74
2017-05-27T02:11:36.231Z,84.74
2017-05-27T02:12:20.833Z,84.74
2017-05-27T02:13:05.652Z,84.84
2017-05-27T02:13:50.311Z,84.55
2017-05-27T02:15:18.625Z,84.55
2017-05-27T02:17:10.004Z,84.74
2017-05-27T02:17:57.940Z,84.64
2017-05-27T02:19:19.045Z,84.64
2017-05-27T02:20:35.039Z,84.45
2017-05-27T02:21:52.726Z,84.55
2017-05-27T02:22:55.974Z,84.74
2017-05-27T02:25:37.180Z,84.64
2017-05-27T02:26:46.277Z,84.17
2017-05-27T02:29:00.088Z,83.87
2017-05-27T02:29:40.190Z,84.17
2017-05-27T02:30:35.882Z,84.26
2017-05-27T02:30:49.303Z,84.36
2017-05-27T02:31:33.372Z,84.26
2017-05-27T02:32:39.046Z,84.74
2017-05-27T02:33:04.785Z,84.36
2017-05-27T02:34:17.411Z,84.55
2017-05-27T02:35:42.055Z,84.26
2017-05-27T02:37:56.689Z,84.26
2017-05-27T02:38:34.551Z,84.07
2017-05-27T02:39:18.622Z,84.07
2017-05-27T02:40:17.279Z,83.59
2017-05-27T02:41:03.849Z,83.49
2017-05-27T02:41:24.804Z,83.78
2017-05-27T02:42:22.475Z,83.3
2017-05-27T02:43:31.584Z,83.4
2017-05-27T02:44:01.107Z,83.3
2017-05-27T02:44:14.040Z,83.49
2017-05-27T02:45:05.406Z,83.4
2017-05-27T02:46:16.542Z,83.2
2017-05-27T02:46:31.960Z,83.4
2017-05-27T02:47:19.834Z,83.59
2017-05-27T02:47:31.769Z,83.4
2017-05-27T02:48:29.276Z,83.3
2017-05-27T02:49:18.697Z,83.4
2017-05-27T02:49:59.394Z,83.4
2017-05-27T02:51:05.264Z,83.3
2017-05-27T02:51:18.777Z,83.78
2017-05-27T02:52:03.392Z,83.3
2017-05-27T02:52:17.542Z,83.59
2017-05-27T02:52:34.098Z,83.69
2017-05-27T02:52:48.028Z,83.4
2017-05-27T02:53:01.021Z,83.4
2017-05-27T02:53:39.308Z,83.2
2017-05-27T02:54:23.617Z,83.4
2017-05-27T02:55:53.527Z,83.87
2017-05-27T02:56:09.970Z,83.64
2017-05-27T02:56:23.726Z,83.69
2017-05-27T02:57:07.506Z,83.49
2017-05-27T02:57:19.369Z,83.36
2017-05-27T02:58:04.626Z,83.3
2017-05-27T02:58:42.229Z,83.74
2017-05-27T02:58:54.669Z,83.87
2017-05-27T02:59:08.166Z,83.59
2017-05-27T02:59:22.142Z,83.74
2017-05-27T02:59:37.268Z,83.54
2017-05-27T02:59:50.826Z,83.54
2017-05-27T03:00:36.397Z,83.74
2017-05-27T03:00:52.121Z,83.78
2017-05-27T03:02:02.377Z,83.74
2017-05-27T03:02:14.829Z,84.03
2017-05-27T03:02:32.517Z,83.84
2017-05-27T03:02:45.953Z,84.03
2017-05-27T03:02:59.427Z,83.93
2017-05-27T03:03:12.882Z,83.54
2017-05-27T03:03:27.579Z,84.03
2017-05-27T03:03:41.319Z,84.36
2017-05-27T03:03:54.267Z,84.03
2017-05-27T03:04:07.773Z,84.17
2017-05-27T03:04:37.885Z,84.03
2017-05-27T03:05:22.706Z,84.12
2017-05-27T03:05:36.920Z,83.54
2017-05-27T03:06:46.261Z,83.74
2017-05-27T03:07:33.608Z,83.36
2017-05-27T03:08:09.611Z,83.45
2017-05-27T03:08:27.664Z,83.54
2017-05-27T03:08:43.212Z,83.49
2017-05-27T03:09:03.097Z,83.45
2017-05-27T03:09:18.734Z,83.26
2017-05-27T03:09:31.642Z,83.36
2017-05-27T03:10:07.055Z,83.4
2017-05-27T03:10:23.594Z,83.3
2017-05-27T03:10:56.974Z,83.64
2017-05-27T03:11:10.672Z,83.36
2017-05-27T03:11:24.194Z,83.54
2017-05-27T03:11:38.193Z,83.74
2017-05-27T03:12:21.810Z,83.45
2017-05-27T03:12:38.427Z,83.3
2017-05-27T03:13:03.677Z,83.26
2017-05-27T03:13:16.597Z,83.36
2017-05-27T03:13:29.253Z,83.45
2017-05-27T03:13:43.527Z,83.54
2017-05-27T03:13:56.758Z,83.45
2017-05-27T03:14:09.814Z,83.54
2017-05-27T03:14:21.133Z,83.4
2017-05-27T03:14:34.658Z,83.45
2017-05-27T03:14:48.144Z,83.36
2017-05-27T03:15:01.125Z,83.36
2017-05-27T03:15:22.246Z,83.4
2017-05-27T03:15:35.802Z,83.54
2017-05-27T03:15:55.103Z,83.26
2017-05-27T03:16:16.303Z,83.26
2017-05-27T03:16:30.928Z,83.54
2017-05-27T03:16:45.098Z,83.45
2017-05-27T03:17:00.989Z,83.26
2017-05-27T03:17:14.429Z,83.26
2017-05-27T03:17:26.816Z,83.54
2017-05-27T03:17:40.376Z,83.36
2017-05-27T03:17:53.330Z,83.26
2017-05-27T03:18:17.114Z,83.45
2017-05-27T03:18:30.595Z,83.36
2017-05-27T03:18:44.088Z,83.36
2017-05-27T03:19:02.221Z,83.26
2017-05-27T03:19:15.726Z,83.26
2017-05-27T03:19:29.223Z,83.36
2017-05-27T03:19:42.172Z,83.4
2017-05-27T03:19:55.133Z,83.4
2017-05-27T03:20:08.070Z,83.45
2017-05-27T03:20:20.982Z,83.4
2017-05-27T03:20:34.476Z,83.45
2017-05-27T03:20:47.980Z,83.36
2017-05-27T03:21:00.940Z,83.45
2017-05-27T03:21:14.462Z,83.26
2017-05-27T03:21:27.396Z,83.36
2017-05-27T03:21:40.420Z,83.84
2017-05-27T03:21:53.875Z,83.87
2017-05-27T03:22:09.103Z,83.78
2017-05-27T03:22:22.242Z,83.84
2017-05-27T03:22:35.248Z,83.54
2017-05-27T03:22:48.213Z,83.54
2017-05-27T03:23:01.728Z,84.03
2017-05-27T03:23:14.948Z,83.54
2017-05-27T03:23:28.439Z,83.74
2017-05-27T03:23:41.400Z,83.36
2017-05-27T03:23:54.858Z,83.16
2017-05-27T03:24:08.437Z,83.74
2017-05-27T03:24:21.394Z,83.74
2017-05-27T03:24:33.773Z,83.74
2017-05-27T03:24:47.193Z,83.54
2017-05-27T03:25:00.665Z,83.84
2017-05-27T03:25:14.831Z,83.64
2017-05-27T03:25:28.013Z,83.64
2017-05-27T03:25:40.964Z,83.84
2017-05-27T03:25:55.221Z,83.64
2017-05-27T03:26:08.158Z,83.84
2017-05-27T03:26:21.370Z,83.64
2017-05-27T03:26:35.508Z,83.84
2017-05-27T03:26:49.001Z,83.74
2017-05-27T03:27:01.985Z,83.64
2017-05-27T03:27:14.943Z,83.64
2017-05-27T03:27:28.420Z,83.45
2017-05-27T03:27:41.638Z,83.26
2017-05-27T03:27:54.101Z,83.36
2017-05-27T03:28:07.646Z,83.36
2017-05-27T03:28:20.580Z,83.4
2017-05-27T03:28:34.017Z,83.54
2017-05-27T03:28:46.520Z,83.54
2017-05-27T03:29:00.035Z,83.26
2017-05-27T03:29:13.483Z,83.16
2017-05-27T03:29:25.970Z,83.36
2017-05-27T03:29:38.958Z,83.64
2017-05-27T03:29:51.940Z,83.54
2017-05-27T03:30:04.901Z,83.54
2017-05-27T03:30:22.364Z,83.26
2017-05-27T03:30:35.842Z,83.36
2017-05-27T03:30:49.317Z,83.16
2017-05-27T03:31:02.245Z,83.26
2017-05-27T03:31:15.720Z,83.16
2017-05-27T03:31:29.138Z,82.87
2017-05-27T03:31:42.113Z,82.4
2017-05-27T03:31:55.777Z,82.68
2017-05-27T03:32:08.752Z,82.87
2017-05-27T03:32:21.804Z,82.2
2017-05-27T03:32:34.743Z,82.68
2017-05-27T03:32:48.203Z,82.01
2017-05-27T03:33:01.714Z,81.92
2017-05-27T03:33:14.704Z,82.3
2017-05-27T03:33:27.605Z,82.4
2017-05-27T03:33:40.561Z,82.3
2017-05-27T03:33:53.948Z,81.92
2017-05-27T03:34:06.419Z,81.82
2017-05-27T03:34:19.870Z,81.82
2017-05-27T03:34:32.818Z,82.01
2017-05-27T03:34:46.349Z,81.34
2017-05-27T03:34:59.834Z,81.43
2017-05-27T03:35:13.346Z,81.53
2017-05-27T03:35:26.357Z,81.82
2017-05-27T03:35:39.836Z,81.43
2017-05-27T03:35:53.282Z,81.43
2017-05-27T03:36:05.705Z,81.43
2017-05-27T03:36:19.149Z,81.63
2017-05-27T03:36:32.632Z,82.01
2017-05-27T03:36:46.065Z,81.72
2017-05-27T03:36:59.557Z,81.43
2017-05-27T03:37:13.027Z,81.43
2017-05-27T03:37:26.145Z,81.53
2017-05-27T03:37:37.992Z,81.34
2017-05-27T03:37:50.937Z,81.53
2017-05-27T03:38:04.416Z,81.34
2017-05-27T03:38:17.829Z,81.34
2017-05-27T03:38:31.316Z,81.34
2017-05-27T03:38:44.743Z,81.63
2017-05-27T03:38:57.705Z,81.63
2017-05-27T03:39:11.188Z,81.63
2017-05-27T03:39:24.717Z,81.63
2017-05-27T03:39:37.719Z,81.63
2017-05-27T03:39:51.156Z,81.63
2017-05-27T03:40:03.641Z,81.43
2017-05-27T03:40:16.001Z,81.63
2017-05-27T03:40:29.472Z,81.53
2017-05-27T03:40:42.399Z,81.63
2017-05-27T03:40:55.873Z,81.53
2017-05-27T03:41:09.356Z,81.82
2017-05-27T03:41:22.278Z,81.53
2017-05-27T03:41:35.176Z,81.72
2017-05-27T03:41:48.187Z,81.53
2017-05-27T03:42:01.093Z,81.72
2017-05-27T03:42:13.466Z,81.72
2017-05-27T03:42:26.380Z,81.72
2017-05-27T03:42:38.830Z,81.63
2017-05-27T03:42:52.307Z,81.43
2017-05-27T03:43:05.325Z,81.72
2017-05-27T03:43:18.771Z,81.43
2017-05-27T03:43:31.717Z,81.34
2017-05-27T03:43:45.199Z,81.43
2017-05-27T03:43:58.182Z,81.43
2017-05-27T03:44:11.671Z,81.34
2017-05-27T03:44:25.110Z,81.53
2017-05-27T03:44:38.570Z,81.34
2017-05-27T03:44:52.000Z,81.34
2017-05-27T03:45:04.985Z,81.72
2017-05-27T03:45:17.448Z,81.43
2017-05-27T03:45:30.387Z,81.82
2017-05-27T03:45:43.850Z,81.82
2017-05-27T03:45:57.268Z,81.53
2017-05-27T03:46:10.713Z,81.53
2017-05-27T03:46:23.686Z,81.43
2017-05-27T03:46:36.040Z,81.43
2017-05-27T03:46:48.917Z,81.43
2017-05-27T03:47:01.841Z,81.92
2017-05-27T03:47:15.180Z,81.53
2017-05-27T03:47:28.590Z,81.92
2017-05-27T03:47:42.026Z,81.43
2017-05-27T03:47:55.410Z,81.92
2017-05-27T03:48:08.315Z,81.43
2017-05-27T03:48:21.203Z,81.53
2017-05-27T03:48:34.050Z,81.72
2017-05-27T03:48:47.453Z,81.63
2017-05-27T03:49:00.900Z,81.68
2017-05-27T03:49:13.754Z,81.43
2017-05-27T03:49:27.169Z,81.92
2017-05-27T03:49:40.261Z,81.34
2017-05-27T03:49:53.190Z,81.63
2017-05-27T03:50:06.049Z,81.92
2017-05-27T03:50:18.896Z,81.63
2017-05-27T03:50:32.347Z,81.63
2017-05-27T03:50:45.317Z,81.63
2017-05-27T03:50:58.685Z,81.63
2017-05-27T03:51:12.057Z,81.49
2017-05-27T03:51:23.944Z,81.53
2017-05-27T03:51:37.292Z,82.01
2017-05-27T03:51:50.704Z,81.63
2017-05-27T03:52:03.626Z,81.43
2017-05-27T03:52:16.550Z,81.63
2017-05-27T03:52:29.395Z,81.53
2017-05-27T03:52:43.075Z,81.59
2017-05-27T03:52:55.934Z,81.43
2017-05-27T03:53:09.369Z,81.43
2017-05-27T03:53:22.889Z,81.3
2017-05-27T03:53:36.327Z,81.53
2017-05-27T03:53:49.736Z,81.78
2017-05-27T03:54:02.594Z,81.49
2017-05-27T03:54:15.552Z,81.34
2017-05-27T03:54:28.402Z,81.53
2017-05-27T03:54:41.829Z,81.63
2017-05-27T03:54:54.802Z,81.34
2017-05-27T03:55:08.228Z,81.43
2017-05-27T03:55:21.664Z,81.43
2017-05-27T03:55:34.537Z,81.34
2017-05-27T03:55:47.918Z,81.63
2017-05-27T03:56:00.316Z,81.01
2017-05-27T03:56:13.150Z,81.34